Terminal Aerodrome Forecast
Issued by NWS

Home | Current Version | Previous Version | Text Only | Print | Product List | Glossary On
Versions: 1 2 3 4 5 6 7 8 9 10 11 12
000
FTUS45 KRIW 201700
TAFLND
TAF
KLND 201720Z 2018/2118 VRB06KT P6SM SKC
     FM210300 23009KT P6SM FEW150
     FM210900 21012KT P6SM SCT080 BKN150
     FM211600 22014G21KT P6SM VCSH SCT050 BKN080=

USA.gov is the U.S. government's official web portal to all federal, state and local government web resources and services.